sensor_id;sensor_type;location;lat;lon;timestamp;temperature;humidity
1453;DHT22;720;47.738;7.998;2023-02-14T00:01:29;2.90;86.60
1453;DHT22;720;47.738;7.998;2023-02-14T00:03:54;2.90;87.20
1453;DHT22;720;47.738;7.998;2023-02-14T00:06:25;2.90;87.30
1453;DHT22;720;47.738;7.998;2023-02-14T00:08:51;3.00;87.50
1453;DHT22;720;47.738;7.998;2023-02-14T00:11:19;2.90;87.40
1453;DHT22;720;47.738;7.998;2023-02-14T00:13:44;2.90;87.40
1453;DHT22;720;47.738;7.998;2023-02-14T00:16:29;2.90;87.20
1453;DHT22;720;47.738;7.998;2023-02-14T00:18:54;2.80;86.60
1453;DHT22;720;47.738;7.998;2023-02-14T00:21:39;2.80;86.40
1453;DHT22;720;47.738;7.998;2023-02-14T00:26:36;2.70;88.10
1453;DHT22;720;47.738;7.998;2023-02-14T00:29:06;2.70;88.10
1453;DHT22;720;47.738;7.998;2023-02-14T00:31:32;2.70;88.10
1453;DHT22;720;47.738;7.998;2023-02-14T00:33:58;2.70;88.30
1453;DHT22;720;47.738;7.998;2023-02-14T00:36:24;2.80;87.90
1453;DHT22;720;47.738;7.998;2023-02-14T00:38:50;2.80;86.90
1453;DHT22;720;47.738;7.998;2023-02-14T00:41:16;2.80;86.00
1453;DHT22;720;47.738;7.998;2023-02-14T00:43:49;2.80;85.50
1453;DHT22;720;47.738;7.998;2023-02-14T00:46:15;2.80;84.90
1453;DHT22;720;47.738;7.998;2023-02-14T00:48:41;2.80;84.80
1453;DHT22;720;47.738;7.998;2023-02-14T00:51:08;2.80;84.00
1453;DHT22;720;47.738;7.998;2023-02-14T00:53:34;2.90;82.00
1453;DHT22;720;47.738;7.998;2023-02-14T00:56:00;3.00;82.00
1453;DHT22;720;47.738;7.998;2023-02-14T00:58:25;2.90;82.30
1453;DHT22;720;47.738;7.998;2023-02-14T01:00:52;2.90;83.70
1453;DHT22;720;47.738;7.998;2023-02-14T01:03:18;2.80;85.00
1453;DHT22;720;47.738;7.998;2023-02-14T01:05:43;2.80;86.70
1453;DHT22;720;47.738;7.998;2023-02-14T01:08:09;2.70;87.10
1453;DHT22;720;47.738;7.998;2023-02-14T01:10:36;2.70;87.00
1453;DHT22;720;47.738;7.998;2023-02-14T01:13:02;2.70;86.40
1453;DHT22;720;47.738;7.998;2023-02-14T01:15:28;2.60;85.60
1453;DHT22;720;47.738;7.998;2023-02-14T01:17:57;2.70;86.00
1453;DHT22;720;47.738;7.998;2023-02-14T01:20:23;2.60;86.30
1453;DHT22;720;47.738;7.998;2023-02-14T01:22:48;2.60;86.70
1453;DHT22;720;47.738;7.998;2023-02-14T01:25:14;2.60;86.80
1453;DHT22;720;47.738;7.998;2023-02-14T01:27:40;2.60;86.40
1453;DHT22;720;47.738;7.998;2023-02-14T01:30:06;2.60;85.70
1453;DHT22;720;47.738;7.998;2023-02-14T01:32:32;2.60;85.50
1453;DHT22;720;47.738;7.998;2023-02-14T01:34:58;2.60;85.50
1453;DHT22;720;47.738;7.998;2023-02-14T01:37:25;2.60;85.30
1453;DHT22;720;47.738;7.998;2023-02-14T01:39:50;2.60;85.00
1453;DHT22;720;47.738;7.998;2023-02-14T01:42:16;2.60;84.50
1453;DHT22;720;47.738;7.998;2023-02-14T01:47:10;2.60;84.20
1453;DHT22;720;47.738;7.998;2023-02-14T01:49:42;2.50;84.60
1453;DHT22;720;47.738;7.998;2023-02-14T01:52:20;2.40;85.80
1453;DHT22;720;47.738;7.998;2023-02-14T01:54:59;2.50;86.40
1453;DHT22;720;47.738;7.998;2023-02-14T01:57:32;2.50;86.00
1453;DHT22;720;47.738;7.998;2023-02-14T01:59:59;2.50;85.80
1453;DHT22;720;47.738;7.998;2023-02-14T02:02:46;2.60;85.20
1453;DHT22;720;47.738;7.998;2023-02-14T02:05:13;2.70;85.10
1453;DHT22;720;47.738;7.998;2023-02-14T02:07:39;2.70;85.30
1453;DHT22;720;47.738;7.998;2023-02-14T02:10:06;2.60;85.20
1453;DHT22;720;47.738;7.998;2023-02-14T02:12:33;2.60;85.40
1453;DHT22;720;47.738;7.998;2023-02-14T02:15:03;2.60;85.90
1453;DHT22;720;47.738;7.998;2023-02-14T02:26:45;2.70;83.50
1453;DHT22;720;47.738;7.998;2023-02-14T02:38:17;2.60;83.50
1453;DHT22;720;47.738;7.998;2023-02-14T02:44:14;2.70;80.30
1453;DHT22;720;47.738;7.998;2023-02-14T02:46:48;2.70;80.90
1453;DHT22;720;47.738;7.998;2023-02-14T02:52:13;2.70;83.50
1453;DHT22;720;47.738;7.998;2023-02-14T02:55:05;2.60;83.60
1453;DHT22;720;47.738;7.998;2023-02-14T02:57:35;2.60;81.20
1453;DHT22;720;47.738;7.998;2023-02-14T03:00:04;2.70;79.70
1453;DHT22;720;47.738;7.998;2023-02-14T03:02:37;2.70;78.40
1453;DHT22;720;47.738;7.998;2023-02-14T03:05:25;2.80;78.60
1453;DHT22;720;47.738;7.998;2023-02-14T03:07:51;2.70;79.30
1453;DHT22;720;47.738;7.998;2023-02-14T03:10:23;2.60;80.60
1453;DHT22;720;47.738;7.998;2023-02-14T03:13:18;2.50;81.90
1453;DHT22;720;47.738;7.998;2023-02-14T03:21:30;2.60;82.80
1453;DHT22;720;47.738;7.998;2023-02-14T03:24:20;2.60;80.60
1453;DHT22;720;47.738;7.998;2023-02-14T03:26:54;2.70;77.80
1453;DHT22;720;47.738;7.998;2023-02-14T03:30:25;2.80;74.80
1453;DHT22;720;47.738;7.998;2023-02-14T03:35:29;2.80;76.50
1453;DHT22;720;47.738;7.998;2023-02-14T03:38:05;2.80;76.70
1453;DHT22;720;47.738;7.998;2023-02-14T03:40:48;2.70;77.30
1453;DHT22;720;47.738;7.998;2023-02-14T03:43:26;2.80;79.20
1453;DHT22;720;47.738;7.998;2023-02-14T03:46:09;2.70;79.30
1453;DHT22;720;47.738;7.998;2023-02-14T03:48:39;2.70;80.40
1453;DHT22;720;47.738;7.998;2023-02-14T03:51:08;2.60;80.40
1453;DHT22;720;47.738;7.998;2023-02-14T03:53:36;2.70;80.40
1453;DHT22;720;47.738;7.998;2023-02-14T03:56:14;2.70;80.70
1453;DHT22;720;47.738;7.998;2023-02-14T03:58:45;2.60;81.00
1453;DHT22;720;47.738;7.998;2023-02-14T04:01:24;2.70;81.70
1453;DHT22;720;47.738;7.998;2023-02-14T04:03:54;2.70;81.10
1453;DHT22;720;47.738;7.998;2023-02-14T04:06:21;2.70;80.60
1453;DHT22;720;47.738;7.998;2023-02-14T04:08:47;2.60;81.10
1453;DHT22;720;47.738;7.998;2023-02-14T04:11:13;2.60;81.50
1453;DHT22;720;47.738;7.998;2023-02-14T04:13:38;2.60;81.60
1453;DHT22;720;47.738;7.998;2023-02-14T04:16:05;2.70;80.60
1453;DHT22;720;47.738;7.998;2023-02-14T04:18:31;2.60;80.00
1453;DHT22;720;47.738;7.998;2023-02-14T04:21:15;2.60;80.80
1453;DHT22;720;47.738;7.998;2023-02-14T04:23:41;2.50;81.20
1453;DHT22;720;47.738;7.998;2023-02-14T04:26:07;2.50;80.40
1453;DHT22;720;47.738;7.998;2023-02-14T04:28:33;2.60;78.90
1453;DHT22;720;47.738;7.998;2023-02-14T04:31:03;2.60;77.30
1453;DHT22;720;47.738;7.998;2023-02-14T04:33:29;2.70;75.00
1453;DHT22;720;47.738;7.998;2023-02-14T04:35:55;2.70;73.70
1453;DHT22;720;47.738;7.998;2023-02-14T04:38:20;2.80;74.80
1453;DHT22;720;47.738;7.998;2023-02-14T04:40:50;2.80;76.80
1453;DHT22;720;47.738;7.998;2023-02-14T04:43:16;2.70;77.40
1453;DHT22;720;47.738;7.998;2023-02-14T04:45:42;2.60;78.00
1453;DHT22;720;47.738;7.998;2023-02-14T04:48:08;2.70;78.00
1453;DHT22;720;47.738;7.998;2023-02-14T04:50:33;2.70;76.10
1453;DHT22;720;47.738;7.998;2023-02-14T04:52:59;2.70;74.40
1453;DHT22;720;47.738;7.998;2023-02-14T04:55:25;2.70;73.80
1453;DHT22;720;47.738;7.998;2023-02-14T04:57:50;2.80;96.60
1453;DHT22;720;47.738;7.998;2023-02-14T05:00:16;2.40;99.90
1453;DHT22;720;47.738;7.998;2023-02-14T05:02:42;2.70;99.90
1453;DHT22;720;47.738;7.998;2023-02-14T05:05:08;2.50;99.90
1453;DHT22;720;47.738;7.998;2023-02-14T05:07:33;2.50;95.10
1453;DHT22;720;47.738;7.998;2023-02-14T05:09:59;2.90;99.90
1453;DHT22;720;47.738;7.998;2023-02-14T05:12:24;2.40;78.40
1453;DHT22;720;47.738;7.998;2023-02-14T05:14:50;2.60;73.20
1453;DHT22;720;47.738;7.998;2023-02-14T05:17:16;2.70;71.80
1453;DHT22;720;47.738;7.998;2023-02-14T05:19:41;2.80;72.50
1453;DHT22;720;47.738;7.998;2023-02-14T05:22:07;2.80;73.80
1453;DHT22;720;47.738;7.998;2023-02-14T05:24:33;2.70;74.40
1453;DHT22;720;47.738;7.998;2023-02-14T05:26:58;2.70;74.40
1453;DHT22;720;47.738;7.998;2023-02-14T05:29:24;2.70;75.20
1453;DHT22;720;47.738;7.998;2023-02-14T05:31:50;2.70;75.80
1453;DHT22;720;47.738;7.998;2023-02-14T05:34:15;2.70;75.60
1453;DHT22;720;47.738;7.998;2023-02-14T05:36:41;2.80;76.20
1453;DHT22;720;47.738;7.998;2023-02-14T05:39:06;2.80;76.60
1453;DHT22;720;47.738;7.998;2023-02-14T05:41:32;2.80;76.70
1453;DHT22;720;47.738;7.998;2023-02-14T05:43:58;2.80;76.20
1453;DHT22;720;47.738;7.998;2023-02-14T05:46:23;2.80;75.80
1453;DHT22;720;47.738;7.998;2023-02-14T05:48:49;2.90;75.60
1453;DHT22;720;47.738;7.998;2023-02-14T05:51:15;3.80;99.90
1453;DHT22;720;47.738;7.998;2023-02-14T05:53:40;2.80;77.60
1453;DHT22;720;47.738;7.998;2023-02-14T05:56:06;2.70;76.00
1453;DHT22;720;47.738;7.998;2023-02-14T05:58:31;2.70;76.70
1453;DHT22;720;47.738;7.998;2023-02-14T06:00:58;2.70;76.10
1453;DHT22;720;47.738;7.998;2023-02-14T06:03:24;2.70;74.60
1453;DHT22;720;47.738;7.998;2023-02-14T06:05:50;2.80;74.00
1453;DHT22;720;47.738;7.998;2023-02-14T06:08:15;2.80;73.70
1453;DHT22;720;47.738;7.998;2023-02-14T06:10:41;2.80;73.40
1453;DHT22;720;47.738;7.998;2023-02-14T06:13:07;2.80;73.40
1453;DHT22;720;47.738;7.998;2023-02-14T06:15:34;2.80;73.00
1453;DHT22;720;47.738;7.998;2023-02-14T06:18:00;2.80;73.60
1453;DHT22;720;47.738;7.998;2023-02-14T06:20:26;2.80;74.10
1453;DHT22;720;47.738;7.998;2023-02-14T06:22:52;2.80;74.00
1453;DHT22;720;47.738;7.998;2023-02-14T06:25:19;2.80;76.00
1453;DHT22;720;47.738;7.998;2023-02-14T06:27:45;2.70;77.80
1453;DHT22;720;47.738;7.998;2023-02-14T06:30:11;2.60;79.60
1453;DHT22;720;47.738;7.998;2023-02-14T06:32:37;2.70;79.90
1453;DHT22;720;47.738;7.998;2023-02-14T06:35:04;2.70;79.60
1453;DHT22;720;47.738;7.998;2023-02-14T06:37:29;2.70;79.10
1453;DHT22;720;47.738;7.998;2023-02-14T06:39:55;2.50;97.60
1453;DHT22;720;47.738;7.998;2023-02-14T06:42:21;2.70;78.90
1453;DHT22;720;47.738;7.998;2023-02-14T06:44:46;2.70;79.00
1453;DHT22;720;47.738;7.998;2023-02-14T06:47:12;2.70;79.60
1453;DHT22;720;47.738;7.998;2023-02-14T06:49:37;2.80;79.00
1453;DHT22;720;47.738;7.998;2023-02-14T06:52:04;2.80;77.60
1453;DHT22;720;47.738;7.998;2023-02-14T06:54:30;2.80;77.60
1453;DHT22;720;47.738;7.998;2023-02-14T06:56:55;2.90;78.20
1453;DHT22;720;47.738;7.998;2023-02-14T06:59:21;2.90;79.50
1453;DHT22;720;47.738;7.998;2023-02-14T07:01:46;2.90;80.20
1453;DHT22;720;47.738;7.998;2023-02-14T07:04:12;2.90;80.40
1453;DHT22;720;47.738;7.998;2023-02-14T07:06:38;3.00;80.50
1453;DHT22;720;47.738;7.998;2023-02-14T07:09:04;3.00;79.80
1453;DHT22;720;47.738;7.998;2023-02-14T07:11:30;3.00;79.00
1453;DHT22;720;47.738;7.998;2023-02-14T07:13:56;3.00;79.20
1453;DHT22;720;47.738;7.998;2023-02-14T07:16:21;3.10;79.60
1453;DHT22;720;47.738;7.998;2023-02-14T07:18:47;3.10;79.50
1453;DHT22;720;47.738;7.998;2023-02-14T07:21:13;3.10;79.40
1453;DHT22;720;47.738;7.998;2023-02-14T07:23:39;3.20;79.20
1453;DHT22;720;47.738;7.998;2023-02-14T07:26:04;3.30;78.60
1453;DHT22;720;47.738;7.998;2023-02-14T07:28:30;3.30;77.70
1453;DHT22;720;47.738;7.998;2023-02-14T07:31:00;3.20;76.80
1453;DHT22;720;47.738;7.998;2023-02-14T07:33:25;3.30;77.20
1453;DHT22;720;47.738;7.998;2023-02-14T07:35:51;3.30;78.00
1453;DHT22;720;47.738;7.998;2023-02-14T07:38:17;3.20;79.50
1453;DHT22;720;47.738;7.998;2023-02-14T07:40:42;3.20;80.30
1453;DHT22;720;47.738;7.998;2023-02-14T07:43:08;3.20;80.10
1453;DHT22;720;47.738;7.998;2023-02-14T07:45:34;3.10;79.60
1453;DHT22;720;47.738;7.998;2023-02-14T07:47:59;3.20;79.90
1453;DHT22;720;47.738;7.998;2023-02-14T07:50:27;3.50;80.60
1453;DHT22;720;47.738;7.998;2023-02-14T07:52:54;4.80;81.80
1453;DHT22;720;47.738;7.998;2023-02-14T07:55:20;7.10;75.70
1453;DHT22;720;47.738;7.998;2023-02-14T07:57:47;9.60;69.30
1453;DHT22;720;47.738;7.998;2023-02-14T08:00:14;12.10;60.80
1453;DHT22;720;47.738;7.998;2023-02-14T08:02:40;14.30;54.80
1453;DHT22;720;47.738;7.998;2023-02-14T08:05:06;16.00;47.90
1453;DHT22;720;47.738;7.998;2023-02-14T08:07:33;17.40;43.50
1453;DHT22;720;47.738;7.998;2023-02-14T08:09:58;18.50;40.60
1453;DHT22;720;47.738;7.998;2023-02-14T08:12:24;19.50;38.70
1453;DHT22;720;47.738;7.998;2023-02-14T08:15:08;20.20;37.20
1453;DHT22;720;47.738;7.998;2023-02-14T08:17:52;20.70;35.90
1453;DHT22;720;47.738;7.998;2023-02-14T08:20:18;21.10;35.00
1453;DHT22;720;47.738;7.998;2023-02-14T08:22:43;21.40;34.00
1453;DHT22;720;47.738;7.998;2023-02-14T08:25:09;21.70;33.50
1453;DHT22;720;47.738;7.998;2023-02-14T08:27:35;22.10;33.30
1453;DHT22;720;47.738;7.998;2023-02-14T08:30:00;22.80;33.10
1453;DHT22;720;47.738;7.998;2023-02-14T08:32:26;23.20;32.00
1453;DHT22;720;47.738;7.998;2023-02-14T08:34:52;23.50;31.50
1453;DHT22;720;47.738;7.998;2023-02-14T08:37:17;24.00;30.90
1453;DHT22;720;47.738;7.998;2023-02-14T08:39:43;24.60;30.60
1453;DHT22;720;47.738;7.998;2023-02-14T08:42:08;25.20;30.00
1453;DHT22;720;47.738;7.998;2023-02-14T08:44:34;25.70;29.60
1453;DHT22;720;47.738;7.998;2023-02-14T08:47:00;26.10;29.10
1453;DHT22;720;47.738;7.998;2023-02-14T08:49:25;26.50;28.40
1453;DHT22;720;47.738;7.998;2023-02-14T08:51:51;26.70;27.80
1453;DHT22;720;47.738;7.998;2023-02-14T08:54:16;26.70;27.70
1453;DHT22;720;47.738;7.998;2023-02-14T08:56:42;26.60;27.30
1453;DHT22;720;47.738;7.998;2023-02-14T08:59:07;26.70;27.10
1453;DHT22;720;47.738;7.998;2023-02-14T09:01:33;26.90;27.10
1453;DHT22;720;47.738;7.998;2023-02-14T09:04:00;26.60;27.80
1453;DHT22;720;47.738;7.998;2023-02-14T09:06:26;26.40;28.20
1453;DHT22;720;47.738;7.998;2023-02-14T09:08:52;26.00;28.10
1453;DHT22;720;47.738;7.998;2023-02-14T09:11:21;25.50;28.30
1453;DHT22;720;47.738;7.998;2023-02-14T09:13:47;25.30;28.10
1453;DHT22;720;47.738;7.998;2023-02-14T09:16:14;25.20;27.60
1453;DHT22;720;47.738;7.998;2023-02-14T09:18:42;25.30;27.50
1453;DHT22;720;47.738;7.998;2023-02-14T09:21:10;25.70;27.70
1453;DHT22;720;47.738;7.998;2023-02-14T09:23:36;26.30;27.90
1453;DHT22;720;47.738;7.998;2023-02-14T09:26:04;27.10;28.00
1453;DHT22;720;47.738;7.998;2023-02-14T09:28:30;27.90;27.20
1453;DHT22;720;47.738;7.998;2023-02-14T09:30:56;28.60;26.40
1453;DHT22;720;47.738;7.998;2023-02-14T09:33:24;29.30;25.80
1453;DHT22;720;47.738;7.998;2023-02-14T09:35:51;29.70;25.50
1453;DHT22;720;47.738;7.998;2023-02-14T09:38:16;30.20;25.00
1453;DHT22;720;47.738;7.998;2023-02-14T09:40:45;30.40;24.90
1453;DHT22;720;47.738;7.998;2023-02-14T09:43:26;30.60;25.10
1453;DHT22;720;47.738;7.998;2023-02-14T09:45:57;30.80;25.00
1453;DHT22;720;47.738;7.998;2023-02-14T09:48:25;30.90;24.80
1453;DHT22;720;47.738;7.998;2023-02-14T09:50:58;31.00;24.70
1453;DHT22;720;47.738;7.998;2023-02-14T09:53:31;31.10;24.30
1453;DHT22;720;47.738;7.998;2023-02-14T10:01:21;31.20;25.00
1453;DHT22;720;47.738;7.998;2023-02-14T10:06:56;31.40;25.30
1453;DHT22;720;47.738;7.998;2023-02-14T10:12:10;31.30;25.30
1453;DHT22;720;47.738;7.998;2023-02-14T10:14:39;31.10;25.20
1453;DHT22;720;47.738;7.998;2023-02-14T10:17:14;31.00;25.30
1453;DHT22;720;47.738;7.998;2023-02-14T10:19:50;30.90;25.60
1453;DHT22;720;47.738;7.998;2023-02-14T10:22:19;30.70;25.10
1453;DHT22;720;47.738;7.998;2023-02-14T10:25:16;30.50;24.30
1453;DHT22;720;47.738;7.998;2023-02-14T10:27:47;30.20;25.40
1453;DHT22;720;47.738;7.998;2023-02-14T10:30:16;30.00;25.70
1453;DHT22;720;47.738;7.998;2023-02-14T10:32:46;29.80;26.00
1453;DHT22;720;47.738;7.998;2023-02-14T10:48:58;27.70;25.70
1453;DHT22;720;47.738;7.998;2023-02-14T10:56:50;26.40;24.90
1453;DHT22;720;47.738;7.998;2023-02-14T11:01:55;25.00;26.70
1453;DHT22;720;47.738;7.998;2023-02-14T11:04:24;24.60;25.80
1453;DHT22;720;47.738;7.998;2023-02-14T11:06:50;23.90;25.30
1453;DHT22;720;47.738;7.998;2023-02-14T11:09:17;23.20;25.90
1453;DHT22;720;47.738;7.998;2023-02-14T11:11:50;22.60;25.00
1453;DHT22;720;47.738;7.998;2023-02-14T11:14:28;21.70;24.70
1453;DHT22;720;47.738;7.998;2023-02-14T11:16:56;20.90;26.30
1453;DHT22;720;47.738;7.998;2023-02-14T11:19:32;20.50;26.80
1453;DHT22;720;47.738;7.998;2023-02-14T11:22:01;19.90;25.80
1453;DHT22;720;47.738;7.998;2023-02-14T11:27:16;18.90;26.90
1453;DHT22;720;47.738;7.998;2023-02-14T11:29:44;18.40;26.40
1453;DHT22;720;47.738;7.998;2023-02-14T11:32:31;18.10;28.10
1453;DHT22;720;47.738;7.998;2023-02-14T11:35:01;17.90;27.20
1453;DHT22;720;47.738;7.998;2023-02-14T11:37:30;17.50;26.40
1453;DHT22;720;47.738;7.998;2023-02-14T11:39:59;17.20;26.70
1453;DHT22;720;47.738;7.998;2023-02-14T11:42:44;16.90;27.80
1453;DHT22;720;47.738;7.998;2023-02-14T11:45:30;16.80;28.60
1453;DHT22;720;47.738;7.998;2023-02-14T11:48:18;16.70;28.40
1453;DHT22;720;47.738;7.998;2023-02-14T11:50:57;16.60;29.00
1453;DHT22;720;47.738;7.998;2023-02-14T11:53:27;16.40;29.30
1453;DHT22;720;47.738;7.998;2023-02-14T11:55:55;16.30;30.10
1453;DHT22;720;47.738;7.998;2023-02-14T12:01:12;16.10;29.40
1453;DHT22;720;47.738;7.998;2023-02-14T12:03:46;15.90;29.90
1453;DHT22;720;47.738;7.998;2023-02-14T12:06:22;15.90;29.90
1453;DHT22;720;47.738;7.998;2023-02-14T12:08:49;15.80;30.00
1453;DHT22;720;47.738;7.998;2023-02-14T12:11:20;15.60;30.20
1453;DHT22;720;47.738;7.998;2023-02-14T12:13:54;15.60;30.80
1453;DHT22;720;47.738;7.998;2023-02-14T12:16:25;15.60;30.90
1453;DHT22;720;47.738;7.998;2023-02-14T12:19:36;15.60;29.50
1453;DHT22;720;47.738;7.998;2023-02-14T12:22:03;15.60;29.30
1453;DHT22;720;47.738;7.998;2023-02-14T12:24:34;15.40;30.00
1453;DHT22;720;47.738;7.998;2023-02-14T12:29:42;15.20;29.80
1453;DHT22;720;47.738;7.998;2023-02-14T12:32:27;15.10;30.40
1453;DHT22;720;47.738;7.998;2023-02-14T12:35:13;15.10;30.30
1453;DHT22;720;47.738;7.998;2023-02-14T12:43:26;15.10;31.90
1453;DHT22;720;47.738;7.998;2023-02-14T13:00:48;14.60;31.90
1453;DHT22;720;47.738;7.998;2023-02-14T13:06:27;14.40;30.30
1453;DHT22;720;47.738;7.998;2023-02-14T13:23:29;13.60;33.50
1453;DHT22;720;47.738;7.998;2023-02-14T13:28:51;13.40;34.00
1453;DHT22;720;47.738;7.998;2023-02-14T13:31:20;13.40;34.70
1453;DHT22;720;47.738;7.998;2023-02-14T13:33:51;13.30;35.80
1453;DHT22;720;47.738;7.998;2023-02-14T13:36:19;13.20;35.70
1453;DHT22;720;47.738;7.998;2023-02-14T13:38:50;13.00;35.90
1453;DHT22;720;47.738;7.998;2023-02-14T13:41:18;12.80;37.30
1453;DHT22;720;47.738;7.998;2023-02-14T13:43:44;12.70;36.80
1453;DHT22;720;47.738;7.998;2023-02-14T13:46:10;12.60;36.90
1453;DHT22;720;47.738;7.998;2023-02-14T13:48:37;12.60;36.90
1453;DHT22;720;47.738;7.998;2023-02-14T13:51:05;12.50;38.20
1453;DHT22;720;47.738;7.998;2023-02-14T13:53:44;12.40;38.40
1453;DHT22;720;47.738;7.998;2023-02-14T13:58:47;11.90;37.90
1453;DHT22;720;47.738;7.998;2023-02-14T14:01:37;11.80;41.20
1453;DHT22;720;47.738;7.998;2023-02-14T14:19:59;11.20;41.30
1453;DHT22;720;47.738;7.998;2023-02-14T14:22:26;11.10;42.50
1453;DHT22;720;47.738;7.998;2023-02-14T14:24:57;11.00;41.70
1453;DHT22;720;47.738;7.998;2023-02-14T14:27:39;10.90;43.10
1453;DHT22;720;47.738;7.998;2023-02-14T14:30:20;10.80;41.50
1453;DHT22;720;47.738;7.998;2023-02-14T14:32:47;10.80;41.40
1453;DHT22;720;47.738;7.998;2023-02-14T14:35:23;10.70;41.40
1453;DHT22;720;47.738;7.998;2023-02-14T14:37:51;10.70;41.00
1453;DHT22;720;47.738;7.998;2023-02-14T14:42:50;10.70;42.00
1453;DHT22;720;47.738;7.998;2023-02-14T14:45:27;10.70;39.70
1453;DHT22;720;47.738;7.998;2023-02-14T14:47:58;10.70;40.60
1453;DHT22;720;47.738;7.998;2023-02-14T14:50:29;10.60;40.40
1453;DHT22;720;47.738;7.998;2023-02-14T14:53:07;10.60;41.50
1453;DHT22;720;47.738;7.998;2023-02-14T14:55:39;10.50;41.20
1453;DHT22;720;47.738;7.998;2023-02-14T14:58:38;10.40;42.00
1453;DHT22;720;47.738;7.998;2023-02-14T15:01:06;10.30;42.90
1453;DHT22;720;47.738;7.998;2023-02-14T15:03:33;10.20;43.20
1453;DHT22;720;47.738;7.998;2023-02-14T15:06:17;10.10;43.00
1453;DHT22;720;47.738;7.998;2023-02-14T15:08:44;10.10;43.00
1453;DHT22;720;47.738;7.998;2023-02-14T15:11:26;10.00;43.80
1453;DHT22;720;47.738;7.998;2023-02-14T15:14:16;10.00;43.90
1453;DHT22;720;47.738;7.998;2023-02-14T15:16:46;9.90;44.40
1453;DHT22;720;47.738;7.998;2023-02-14T15:19:35;9.80;45.80
1453;DHT22;720;47.738;7.998;2023-02-14T15:25:09;9.70;45.50
1453;DHT22;720;47.738;7.998;2023-02-14T15:27:39;9.70;46.00
1453;DHT22;720;47.738;7.998;2023-02-14T15:32:45;9.70;45.30
1453;DHT22;720;47.738;7.998;2023-02-14T15:35:14;9.70;45.30
1453;DHT22;720;47.738;7.998;2023-02-14T15:37:42;9.70;45.40
1453;DHT22;720;47.738;7.998;2023-02-14T15:40:16;9.50;46.20
1453;DHT22;720;47.738;7.998;2023-02-14T15:42:43;9.40;46.60
1453;DHT22;720;47.738;7.998;2023-02-14T15:47:58;9.30;45.80
1453;DHT22;720;47.738;7.998;2023-02-14T15:50:33;9.30;46.50
1453;DHT22;720;47.738;7.998;2023-02-14T15:56:27;9.00;48.10
1453;DHT22;720;47.738;7.998;2023-02-14T15:58:59;8.90;47.90
1453;DHT22;720;47.738;7.998;2023-02-14T16:01:25;8.90;47.90
1453;DHT22;720;47.738;7.998;2023-02-14T16:03:54;8.80;47.90
1453;DHT22;720;47.738;7.998;2023-02-14T16:06:42;8.70;48.40
1453;DHT22;720;47.738;7.998;2023-02-14T16:09:27;8.70;48.20
1453;DHT22;720;47.738;7.998;2023-02-14T16:11:53;8.60;47.70
1453;DHT22;720;47.738;7.998;2023-02-14T16:14:33;8.50;48.30
1453;DHT22;720;47.738;7.998;2023-02-14T16:17:13;8.50;48.90
1453;DHT22;720;47.738;7.998;2023-02-14T16:19:43;8.50;49.70
1453;DHT22;720;47.738;7.998;2023-02-14T16:22:11;8.40;50.40
1453;DHT22;720;47.738;7.998;2023-02-14T16:24:48;8.30;50.70
1453;DHT22;720;47.738;7.998;2023-02-14T16:27:14;8.10;51.40
1453;DHT22;720;47.738;7.998;2023-02-14T16:29:39;7.90;51.20
1453;DHT22;720;47.738;7.998;2023-02-14T16:32:15;7.80;51.20
1453;DHT22;720;47.738;7.998;2023-02-14T16:34:42;7.70;51.00
1453;DHT22;720;47.738;7.998;2023-02-14T16:37:22;7.70;51.50
1453;DHT22;720;47.738;7.998;2023-02-14T16:39:49;7.60;52.10
1453;DHT22;720;47.738;7.998;2023-02-14T16:42:16;7.50;51.60
1453;DHT22;720;47.738;7.998;2023-02-14T16:44:42;7.50;51.20
1453;DHT22;720;47.738;7.998;2023-02-14T16:47:12;7.50;50.70
1453;DHT22;720;47.738;7.998;2023-02-14T16:49:39;7.40;51.40
1453;DHT22;720;47.738;7.998;2023-02-14T16:52:08;7.30;51.90
1453;DHT22;720;47.738;7.998;2023-02-14T16:54:34;7.20;51.50
1453;DHT22;720;47.738;7.998;2023-02-14T16:57:02;7.10;52.30
1453;DHT22;720;47.738;7.998;2023-02-14T16:59:29;7.00;53.10
1453;DHT22;720;47.738;7.998;2023-02-14T17:01:58;6.90;53.90
1453;DHT22;720;47.738;7.998;2023-02-14T17:04:24;6.70;54.20
1453;DHT22;720;47.738;7.998;2023-02-14T17:06:54;6.60;54.60
1453;DHT22;720;47.738;7.998;2023-02-14T17:09:26;6.50;54.50
1453;DHT22;720;47.738;7.998;2023-02-14T17:11:56;6.40;54.90
1453;DHT22;720;47.738;7.998;2023-02-14T17:14:27;6.40;54.90
1453;DHT22;720;47.738;7.998;2023-02-14T17:16:55;6.40;55.10
1453;DHT22;720;47.738;7.998;2023-02-14T17:19:21;6.20;54.60
1453;DHT22;720;47.738;7.998;2023-02-14T17:21:46;6.20;55.50
1453;DHT22;720;47.738;7.998;2023-02-14T17:24:13;6.20;55.60
1453;DHT22;720;47.738;7.998;2023-02-14T17:26:38;6.10;55.20
1453;DHT22;720;47.738;7.998;2023-02-14T17:29:04;6.00;55.60
1453;DHT22;720;47.738;7.998;2023-02-14T17:31:31;5.90;56.10
1453;DHT22;720;47.738;7.998;2023-02-14T17:33:57;5.80;56.60
1453;DHT22;720;47.738;7.998;2023-02-14T17:36:23;5.70;57.10
1453;DHT22;720;47.738;7.998;2023-02-14T17:38:51;5.70;57.40
1453;DHT22;720;47.738;7.998;2023-02-14T17:41:25;5.60;57.50
1453;DHT22;720;47.738;7.998;2023-02-14T17:43:52;5.60;57.30
1453;DHT22;720;47.738;7.998;2023-02-14T17:46:20;5.60;57.20
1453;DHT22;720;47.738;7.998;2023-02-14T17:48:47;5.50;57.40
1453;DHT22;720;47.738;7.998;2023-02-14T17:51:14;5.50;57.90
1453;DHT22;720;47.738;7.998;2023-02-14T17:53:41;5.40;57.70
1453;DHT22;720;47.738;7.998;2023-02-14T17:56:09;5.30;58.10
1453;DHT22;720;47.738;7.998;2023-02-14T17:58:35;5.40;58.30
1453;DHT22;720;47.738;7.998;2023-02-14T18:01:06;5.40;57.40
1453;DHT22;720;47.738;7.998;2023-02-14T18:03:33;5.40;56.60
1453;DHT22;720;47.738;7.998;2023-02-14T18:05:59;5.40;56.50
1453;DHT22;720;47.738;7.998;2023-02-14T18:08:32;5.40;57.70
1453;DHT22;720;47.738;7.998;2023-02-14T18:11:02;5.30;58.30
1453;DHT22;720;47.738;7.998;2023-02-14T18:13:28;5.20;58.70
1453;DHT22;720;47.738;7.998;2023-02-14T18:15:53;5.10;59.50
1453;DHT22;720;47.738;7.998;2023-02-14T18:18:19;5.00;60.00
1453;DHT22;720;47.738;7.998;2023-02-14T18:20:55;4.90;60.60
1453;DHT22;720;47.738;7.998;2023-02-14T18:23:21;4.90;61.30
1453;DHT22;720;47.738;7.998;2023-02-14T18:25:51;4.80;62.10
1453;DHT22;720;47.738;7.998;2023-02-14T18:28:18;4.90;63.50
1453;DHT22;720;47.738;7.998;2023-02-14T18:30:44;4.80;62.10
1453;DHT22;720;47.738;7.998;2023-02-14T18:33:10;4.80;61.40
1453;DHT22;720;47.738;7.998;2023-02-14T18:35:36;4.80;59.90
1453;DHT22;720;47.738;7.998;2023-02-14T18:38:01;4.80;59.40
1453;DHT22;720;47.738;7.998;2023-02-14T18:40:27;4.80;59.40
1453;DHT22;720;47.738;7.998;2023-02-14T18:42:53;4.80;59.50
1453;DHT22;720;47.738;7.998;2023-02-14T18:45:19;4.80;59.50
1453;DHT22;720;47.738;7.998;2023-02-14T18:47:44;4.70;60.40
1453;DHT22;720;47.738;7.998;2023-02-14T18:50:10;4.70;60.70
1453;DHT22;720;47.738;7.998;2023-02-14T18:52:36;4.70;60.90
1453;DHT22;720;47.738;7.998;2023-02-14T18:55:02;4.60;62.90
1453;DHT22;720;47.738;7.998;2023-02-14T18:57:29;4.50;64.00
1453;DHT22;720;47.738;7.998;2023-02-14T18:59:55;4.50;64.40
1453;DHT22;720;47.738;7.998;2023-02-14T19:02:21;4.50;64.70
1453;DHT22;720;47.738;7.998;2023-02-14T19:04:47;4.40;64.80
1453;DHT22;720;47.738;7.998;2023-02-14T19:07:12;4.30;66.20
1453;DHT22;720;47.738;7.998;2023-02-14T19:09:38;4.30;67.40
1453;DHT22;720;47.738;7.998;2023-02-14T19:12:13;4.30;68.30
1453;DHT22;720;47.738;7.998;2023-02-14T19:14:39;4.40;68.30
1453;DHT22;720;47.738;7.998;2023-02-14T19:17:05;4.40;68.30